Terminal Aerodrome Forecast
Issued by NWS Northern Indiana

Home | Current Version | Previous Version | Graphics & Text | Print | Product List | Glossary On
Versions: 1 2 3 4 5 6 7 8 9 10 11 12 13 14 15 16 17 18
848
FTUS43 KIWX 141649 AAB
TAFFWA
TAF AMD
KFWA 141649Z 1417/1512 07007KT P6SM OVC009
     FM141800 06006KT P6SM OVC015
     FM142100 31006KT P6SM BKN020
     FM150400 33006KT P6SM SCT200=

USA.gov is the U.S. government's official web portal to all federal, state and local government web resources and services.